createdAt,value
2022-11-29T00:01:09.094Z,16.20
2022-11-29T00:03:41.470Z,19.20
2022-11-29T00:06:16.447Z,14.30
2022-11-29T00:08:49.826Z,17.30
2022-11-29T00:11:37.990Z,20.20
2022-11-29T00:14:12.094Z,17.40
2022-11-29T00:16:44.546Z,16.60
2022-11-29T00:19:18.003Z,15.80
2022-11-29T00:21:50.643Z,15.70
2022-11-29T00:24:23.334Z,20.50
2022-11-29T00:26:55.968Z,17.10
2022-11-29T00:29:28.433Z,23.40
2022-11-29T00:32:00.743Z,23.10
2022-11-29T00:34:33.103Z,18.80
2022-11-29T00:37:05.818Z,18.40
2022-11-29T00:39:38.105Z,16.30
2022-11-29T00:42:10.432Z,18.50
2022-11-29T00:44:43.072Z,16.30
2022-11-29T00:47:15.543Z,14.20
2022-11-29T00:49:47.832Z,21.60
2022-11-29T00:52:20.074Z,24.20
2022-11-29T00:54:52.327Z,16.30
2022-11-29T00:57:24.672Z,22.40
2022-11-29T00:59:56.929Z,15.60
2022-11-29T01:02:29.768Z,18.20
2022-11-29T01:05:02.496Z,23.00
2022-11-29T01:07:34.817Z,19.70
2022-11-29T01:10:11.326Z,20.60
2022-11-29T01:12:43.579Z,17.80
2022-11-29T01:15:16.201Z,21.80
2022-11-29T01:17:49.299Z,21.20
2022-11-29T01:20:21.711Z,20.90
2022-11-29T01:22:54.361Z,22.40
2022-11-29T01:25:26.707Z,21.00
2022-11-29T01:27:59.153Z,21.20
2022-11-29T01:30:31.614Z,22.40
2022-11-29T01:33:04.343Z,21.00
2022-11-29T01:35:36.683Z,18.80
2022-11-29T01:38:09.069Z,22.10
2022-11-29T01:40:41.346Z,23.30
2022-11-29T01:43:18.626Z,24.30
2022-11-29T01:45:52.650Z,23.30
2022-11-29T01:48:28.797Z,24.60
2022-11-29T01:51:02.961Z,21.00
2022-11-29T01:53:35.976Z,20.60
2022-11-29T01:56:09.959Z,22.70
2022-11-29T01:58:43.104Z,23.00
2022-11-29T02:01:15.798Z,24.30
2022-11-29T02:03:48.208Z,20.40
2022-11-29T02:06:21.574Z,19.20
2022-11-29T02:08:53.910Z,19.00
2022-11-29T02:12:00.472Z,20.10
2022-11-29T02:14:51.027Z,20.80
2022-11-29T02:17:34.523Z,22.20
2022-11-29T02:20:44.066Z,20.80
2022-11-29T02:23:42.045Z,22.60
2022-11-29T02:26:30.325Z,25.40
2022-11-29T02:29:24.270Z,20.30
2022-11-29T02:32:52.033Z,19.90
2022-11-29T02:35:40.640Z,22.10
2022-11-29T02:38:31.281Z,19.80
2022-11-29T02:41:29.163Z,20.70
2022-11-29T02:44:33.799Z,20.60
2022-11-29T02:47:16.937Z,21.80
2022-11-29T02:50:14.174Z,18.80
2022-11-29T02:52:54.447Z,22.60
2022-11-29T02:55:34.890Z,21.10
2022-11-29T02:58:18.134Z,21.40
2022-11-29T03:00:58.451Z,21.40
2022-11-29T03:03:39.544Z,21.50
2022-11-29T03:06:22.417Z,22.30
2022-11-29T03:09:02.101Z,20.00
2022-11-29T03:11:42.531Z,21.20
2022-11-29T03:14:25.734Z,24.10
2022-11-29T03:17:09.660Z,19.20
2022-11-29T03:20:08.331Z,22.10
2022-11-29T03:22:49.234Z,21.60
2022-11-29T03:25:30.618Z,18.20
2022-11-29T03:28:12.998Z,21.10
2022-11-29T03:30:51.465Z,20.50
2022-11-29T03:33:34.367Z,23.10
2022-11-29T03:36:14.238Z,22.60
2022-11-29T03:38:48.429Z,18.70
2022-11-29T03:41:26.302Z,21.80
2022-11-29T03:44:03.826Z,17.50
2022-11-29T03:46:44.127Z,20.50
2022-11-29T03:49:24.201Z,19.20
2022-11-29T03:52:05.678Z,24.40
2022-11-29T03:54:50.874Z,22.50
2022-11-29T03:57:31.653Z,23.50
2022-11-29T04:00:09.175Z,22.10
2022-11-29T04:03:12.905Z,25.80
2022-11-29T04:06:04.047Z,21.50
2022-11-29T04:09:12.458Z,25.90
2022-11-29T04:12:32.643Z,28.30
2022-11-29T04:15:38.033Z,23.70
2022-11-29T04:18:35.126Z,25.10
2022-11-29T04:21:28.218Z,23.00
2022-11-29T04:24:21.375Z,30.80
2022-11-29T04:27:31.559Z,26.10
2022-11-29T04:30:20.206Z,23.60
2022-11-29T04:33:30.152Z,21.30
2022-11-29T04:36:22.074Z,22.00
2022-11-29T04:39:18.506Z,24.70
2022-11-29T04:42:29.211Z,21.30
2022-11-29T04:45:30.573Z,25.10
2022-11-29T04:48:18.060Z,23.40
2022-11-29T04:51:04.709Z,24.90
2022-11-29T04:53:58.043Z,22.00
2022-11-29T04:56:38.410Z,25.70
2022-11-29T04:59:17.297Z,26.40
2022-11-29T05:02:00.103Z,25.10
2022-11-29T05:04:38.132Z,21.00
2022-11-29T05:07:18.388Z,24.00
2022-11-29T05:10:01.885Z,24.00
2022-11-29T05:12:40.058Z,23.30
2022-11-29T05:15:42.538Z,23.70
2022-11-29T05:18:24.208Z,26.90
2022-11-29T05:21:07.661Z,27.00
2022-11-29T05:23:55.258Z,25.50
2022-11-29T05:26:31.882Z,23.60
2022-11-29T05:29:07.488Z,25.70
2022-11-29T05:31:57.509Z,30.50
2022-11-29T05:34:47.277Z,24.50
2022-11-29T05:37:32.831Z,28.80
2022-11-29T05:40:29.279Z,26.90
2022-11-29T05:43:16.790Z,25.30
2022-11-29T05:45:56.366Z,25.80
2022-11-29T05:48:36.687Z,25.60
2022-11-29T05:51:21.955Z,26.80
2022-11-29T05:54:06.663Z,28.00
2022-11-29T05:56:50.399Z,25.20
2022-11-29T05:59:26.558Z,27.40
2022-11-29T06:02:08.467Z,26.90
2022-11-29T06:04:57.544Z,29.50
2022-11-29T06:07:40.347Z,29.40
2022-11-29T06:10:17.920Z,29.90
2022-11-29T06:12:57.600Z,32.20
2022-11-29T06:15:52.770Z,31.70
2022-11-29T06:18:36.418Z,30.70
2022-11-29T06:21:22.467Z,34.20
2022-11-29T06:24:23.283Z,24.70
2022-11-29T06:27:17.922Z,32.10
2022-11-29T06:29:58.398Z,28.50
2022-11-29T06:32:41.108Z,25.40
2022-11-29T06:35:44.099Z,25.70
2022-11-29T06:38:23.483Z,25.90
2022-11-29T06:41:01.804Z,27.30
2022-11-29T06:43:35.732Z,29.10
2022-11-29T06:46:15.659Z,27.90
2022-11-29T06:48:56.577Z,30.40
2022-11-29T06:51:42.366Z,28.80
2022-11-29T06:54:27.617Z,25.80
2022-11-29T06:57:09.927Z,26.90
2022-11-29T06:59:56.488Z,24.90
2022-11-29T07:02:53.635Z,27.80
2022-11-29T07:05:29.341Z,26.30
2022-11-29T07:08:06.260Z,27.20
2022-11-29T07:10:42.120Z,26.60
2022-11-29T07:16:01.574Z,23.30
2022-11-29T07:18:41.287Z,28.10
2022-11-29T07:21:22.185Z,27.90
2022-11-29T07:24:08.139Z,32.20
2022-11-29T07:26:48.122Z,28.60
2022-11-29T07:29:33.996Z,26.40
2022-11-29T07:32:18.423Z,30.50
2022-11-29T07:35:02.466Z,28.10
2022-11-29T07:37:42.606Z,28.80
2022-11-29T07:40:20.871Z,25.60
2022-11-29T07:43:10.247Z,24.50
2022-11-29T07:45:43.110Z,28.80
2022-11-29T07:48:17.704Z,27.40
2022-11-29T07:50:50.158Z,29.70
2022-11-29T07:53:24.467Z,24.90
2022-11-29T07:55:56.869Z,29.30
2022-11-29T07:58:29.450Z,29.20
2022-11-29T08:01:01.811Z,32.20
2022-11-29T08:03:35.587Z,26.50
2022-11-29T08:06:08.219Z,26.50
2022-11-29T08:08:43.973Z,27.40
2022-11-29T08:11:16.819Z,32.00
2022-11-29T08:13:49.098Z,28.00
2022-11-29T08:16:21.424Z,28.50
2022-11-29T08:18:53.932Z,29.10
2022-11-29T08:21:26.291Z,32.10
2022-11-29T08:23:58.650Z,32.90
2022-11-29T08:26:31.901Z,26.00
2022-11-29T08:29:04.454Z,28.50
2022-11-29T08:31:36.972Z,32.00
2022-11-29T08:34:10.871Z,31.60
2022-11-29T08:36:43.314Z,25.90
2022-11-29T08:39:15.633Z,27.60
2022-11-29T08:41:48.034Z,27.00
2022-11-29T08:44:20.313Z,30.00
2022-11-29T08:47:10.015Z,61.20
2022-11-29T08:50:01.352Z,33.40
2022-11-29T08:52:53.808Z,33.30
2022-11-29T08:55:28.028Z,29.80
2022-11-29T08:58:04.914Z,29.80
2022-11-29T09:00:37.852Z,26.50
2022-11-29T09:03:28.202Z,26.50
2022-11-29T09:06:00.555Z,29.20
2022-11-29T09:08:32.908Z,24.50
2022-11-29T09:11:13.286Z,25.90
2022-11-29T09:13:47.460Z,29.40
2022-11-29T09:16:23.180Z,28.50
2022-11-29T09:18:57.572Z,26.80
2022-11-29T09:21:32.167Z,23.90
2022-11-29T09:24:06.690Z,23.80
2022-11-29T09:26:42.021Z,21.50
2022-11-29T09:29:14.553Z,20.10
2022-11-29T09:31:47.316Z,21.20
2022-11-29T09:34:20.263Z,24.30
2022-11-29T09:36:52.537Z,23.10
2022-11-29T09:39:24.890Z,20.40
2022-11-29T09:42:09.915Z,17.90
2022-11-29T09:44:52.455Z,15.20
2022-11-29T09:47:39.231Z,13.40
2022-11-29T09:50:29.828Z,12.90
2022-11-29T09:53:17.626Z,12.30
2022-11-29T09:56:06.360Z,14.60
2022-11-29T09:58:47.713Z,14.30
2022-11-29T10:01:26.250Z,83.20
2022-11-29T10:04:02.428Z,24.50
2022-11-29T10:06:41.628Z,19.00
2022-11-29T10:09:21.895Z,14.80
2022-11-29T10:12:06.558Z,14.50
2022-11-29T10:14:45.618Z,11.70
2022-11-29T10:17:33.115Z,15.90
2022-11-29T10:20:12.547Z,14.60
2022-11-29T10:22:53.626Z,15.70
2022-11-29T10:25:32.238Z,11.50
2022-11-29T10:28:05.427Z,12.80
2022-11-29T10:30:38.755Z,12.00
2022-11-29T10:33:18.653Z,12.60
2022-11-29T10:35:52.580Z,12.50
2022-11-29T10:38:32.528Z,26.50
2022-11-29T10:41:08.876Z,36.10
2022-11-29T10:43:43.239Z,11.60
2022-11-29T10:46:27.623Z,13.00
2022-11-29T10:49:03.331Z,12.00
2022-11-29T10:51:36.375Z,11.30
2022-11-29T10:54:23.421Z,11.90
2022-11-29T10:56:57.465Z,12.90
2022-11-29T10:59:33.115Z,11.50
2022-11-29T11:02:06.808Z,13.30
2022-11-29T11:04:46.582Z,9.40
2022-11-29T11:07:28.415Z,10.40
2022-11-29T11:10:01.292Z,10.20
2022-11-29T11:12:35.331Z,13.40
2022-11-29T11:15:28.891Z,10.00
2022-11-29T11:18:05.035Z,8.80
2022-11-29T11:20:41.132Z,8.10
2022-11-29T11:26:03.231Z,7.90
2022-11-29T11:28:43.604Z,7.90
2022-11-29T11:31:16.827Z,8.30
2022-11-29T11:33:49.230Z,11.40
2022-11-29T11:36:27.304Z,8.30
2022-11-29T11:39:11.045Z,8.30
2022-11-29T11:42:02.570Z,9.30
2022-11-29T11:44:48.478Z,24.90
2022-11-29T11:47:24.489Z,96.70
2022-11-29T11:50:08.053Z,27.80
2022-11-29T11:52:50.436Z,11.60
2022-11-29T11:55:38.617Z,9.60
2022-11-29T11:58:23.366Z,11.50
2022-11-29T12:01:05.259Z,7.00
2022-11-29T12:03:46.418Z,8.20
2022-11-29T12:06:40.270Z,8.10
2022-11-29T12:09:23.004Z,7.30
2022-11-29T12:12:03.631Z,7.60
2022-11-29T12:14:42.260Z,8.70
2022-11-29T12:17:21.839Z,8.30
2022-11-29T12:20:09.364Z,7.60
2022-11-29T12:22:49.626Z,7.90
2022-11-29T12:25:25.891Z,9.00
2022-11-29T12:27:58.272Z,8.30
2022-11-29T12:30:31.535Z,11.90
2022-11-29T12:33:23.170Z,7.10
2022-11-29T12:36:27.435Z,7.10
2022-11-29T12:39:13.804Z,7.20
2022-11-29T12:41:54.274Z,7.50
2022-11-29T12:44:39.510Z,6.20
2022-11-29T12:47:39.432Z,7.80
2022-11-29T12:50:24.079Z,7.70
2022-11-29T12:53:06.321Z,9.20
2022-11-29T12:55:50.294Z,8.30
2022-11-29T12:58:33.436Z,10.20
2022-11-29T13:01:15.776Z,6.20
2022-11-29T13:03:59.021Z,7.50
2022-11-29T13:06:41.235Z,7.60
2022-11-29T13:09:42.024Z,6.80
2022-11-29T13:12:21.105Z,6.60
2022-11-29T13:15:02.018Z,11.00
2022-11-29T13:17:45.094Z,9.00
2022-11-29T13:20:27.704Z,6.90
2022-11-29T13:23:10.646Z,9.30
2022-11-29T13:25:46.686Z,10.60
2022-11-29T13:28:25.652Z,6.40
2022-11-29T13:31:01.948Z,8.90
2022-11-29T13:33:43.563Z,7.30
2022-11-29T13:36:22.643Z,9.10
2022-11-29T13:39:06.869Z,9.00
2022-11-29T13:41:47.671Z,8.60
2022-11-29T13:44:28.994Z,7.70
2022-11-29T13:47:08.260Z,7.00
2022-11-29T13:50:02.736Z,9.20
2022-11-29T13:52:41.467Z,7.20
2022-11-29T13:55:31.336Z,7.70
2022-11-29T13:58:16.799Z,6.40
2022-11-29T14:03:38.542Z,7.20
2022-11-29T14:06:18.949Z,8.80
2022-11-29T14:09:25.291Z,7.10
2022-11-29T14:12:20.086Z,7.40
2022-11-29T14:14:56.727Z,7.40
2022-11-29T14:17:50.675Z,7.20
2022-11-29T14:20:59.062Z,7.00
2022-11-29T14:23:38.236Z,6.90
2022-11-29T14:26:31.570Z,8.50
2022-11-29T14:29:06.652Z,9.00
2022-11-29T14:31:56.663Z,9.20
2022-11-29T14:34:39.784Z,7.50
2022-11-29T14:37:27.000Z,6.10
2022-11-29T14:40:02.843Z,9.70
2022-11-29T14:45:22.492Z,6.80
2022-11-29T14:47:55.099Z,7.60
2022-11-29T14:50:37.315Z,8.90
2022-11-29T14:53:29.352Z,12.10
2022-11-29T14:56:32.258Z,8.80
2022-11-29T14:59:37.442Z,10.40
2022-11-29T15:02:27.486Z,9.40
2022-11-29T15:05:08.255Z,9.30
2022-11-29T15:07:46.213Z,7.30
2022-11-29T15:10:24.307Z,8.20
2022-11-29T15:12:57.994Z,9.00
2022-11-29T15:15:55.681Z,11.20
2022-11-29T15:18:50.630Z,15.60
2022-11-29T15:21:33.835Z,10.10
2022-11-29T15:24:14.533Z,8.80
2022-11-29T15:26:59.534Z,9.80
2022-11-29T15:29:33.033Z,10.80
2022-11-29T15:32:08.476Z,10.60
2022-11-29T15:34:45.243Z,10.80
2022-11-29T15:37:25.760Z,9.10
2022-11-29T15:40:12.670Z,12.10
2022-11-29T15:42:50.186Z,9.40
2022-11-29T15:45:32.677Z,8.70
2022-11-29T15:48:18.284Z,13.60
2022-11-29T15:50:59.722Z,12.90
2022-11-29T15:53:35.712Z,11.00
2022-11-29T15:56:14.230Z,13.20
2022-11-29T15:58:49.176Z,10.70
2022-11-29T16:01:23.792Z,11.00
2022-11-29T16:03:58.395Z,11.90
2022-11-29T16:06:35.691Z,11.20
2022-11-29T16:09:11.166Z,10.60
2022-11-29T16:11:44.240Z,9.30
2022-11-29T16:14:25.214Z,12.50
2022-11-29T16:17:00.656Z,12.20
2022-11-29T16:19:39.376Z,14.50
2022-11-29T16:22:19.309Z,12.40
2022-11-29T16:25:04.075Z,13.20
2022-11-29T16:27:37.782Z,17.60
2022-11-29T16:30:25.417Z,12.70
2022-11-29T16:33:00.216Z,13.70
2022-11-29T16:35:35.028Z,11.60
2022-11-29T16:38:17.684Z,14.00
2022-11-29T16:41:05.854Z,11.20
2022-11-29T16:43:54.287Z,15.00
2022-11-29T16:46:41.017Z,11.20
2022-11-29T16:49:35.211Z,12.30
2022-11-29T16:52:26.455Z,12.50
2022-11-29T16:54:59.485Z,14.00
2022-11-29T16:57:32.707Z,11.50
2022-11-29T17:00:10.742Z,12.40
2022-11-29T17:02:43.079Z,11.50
2022-11-29T17:05:15.615Z,11.00
2022-11-29T17:07:48.109Z,10.80
2022-11-29T17:10:23.937Z,9.00
2022-11-29T17:12:56.221Z,9.40
2022-11-29T17:15:28.526Z,10.70
2022-11-29T17:18:00.722Z,10.10
2022-11-29T17:20:32.989Z,10.30
2022-11-29T17:23:05.219Z,11.60
2022-11-29T17:25:37.549Z,12.90
2022-11-29T17:28:10.172Z,15.70
2022-11-29T17:30:42.382Z,11.40
2022-11-29T17:33:14.693Z,12.30
2022-11-29T17:35:47.044Z,12.40
2022-11-29T17:38:19.396Z,12.20
2022-11-29T17:40:51.729Z,13.90
2022-11-29T17:43:23.963Z,13.00
2022-11-29T17:45:56.310Z,11.00
2022-11-29T17:48:33.505Z,14.70
2022-11-29T17:51:17.250Z,12.10
2022-11-29T17:54:01.081Z,11.70
2022-11-29T17:56:34.498Z,11.60
2022-11-29T17:59:07.511Z,13.40
2022-11-29T18:01:39.880Z,12.20
2022-11-29T18:04:12.392Z,12.90
2022-11-29T18:06:49.853Z,12.00
2022-11-29T18:09:22.722Z,12.20
2022-11-29T18:11:55.138Z,11.50
2022-11-29T18:14:28.519Z,11.50
2022-11-29T18:17:01.038Z,12.20
2022-11-29T18:19:33.463Z,9.50
2022-11-29T18:22:05.737Z,12.90
2022-11-29T18:24:38.034Z,9.90
2022-11-29T18:27:10.418Z,11.10
2022-11-29T18:29:42.663Z,12.50
2022-11-29T18:32:15.063Z,8.00
2022-11-29T18:34:47.636Z,11.10
2022-11-29T18:37:40.043Z,10.30
2022-11-29T18:40:14.923Z,11.30
2022-11-29T18:42:47.371Z,10.50
2022-11-29T18:45:19.732Z,10.70
2022-11-29T18:47:52.068Z,8.60
2022-11-29T18:50:24.343Z,7.90
2022-11-29T18:52:57.332Z,11.90
2022-11-29T18:55:30.297Z,10.60
2022-11-29T18:58:02.630Z,10.20
2022-11-29T19:00:34.901Z,11.30
2022-11-29T19:03:07.202Z,10.40
2022-11-29T19:05:39.472Z,9.10
2022-11-29T19:08:11.697Z,9.10
2022-11-29T19:10:44.872Z,11.80
2022-11-29T19:13:17.192Z,7.70
2022-11-29T19:15:56.127Z,9.50
2022-11-29T19:18:29.259Z,7.40
2022-11-29T19:21:09.363Z,9.10
2022-11-29T19:23:42.929Z,12.80
2022-11-29T19:26:16.608Z,9.90
2022-11-29T19:28:49.562Z,9.40
2022-11-29T19:31:24.791Z,6.30
2022-11-29T19:33:58.400Z,14.50
2022-11-29T19:36:32.531Z,8.80
2022-11-29T19:39:05.978Z,10.10
2022-11-29T19:41:38.992Z,8.90
2022-11-29T19:44:12.443Z,8.80
2022-11-29T19:46:48.301Z,6.50
2022-11-29T19:51:51.415Z,10.30
2022-11-29T19:54:23.632Z,8.50
2022-11-29T19:56:56.126Z,10.30
2022-11-29T19:59:28.414Z,14.10
2022-11-29T20:02:00.797Z,11.00
2022-11-29T20:04:33.143Z,8.70
2022-11-29T20:07:06.337Z,11.40
2022-11-29T20:09:38.645Z,8.80
2022-11-29T20:12:10.932Z,9.10
2022-11-29T20:14:43.193Z,8.80
2022-11-29T20:17:15.454Z,9.10
2022-11-29T20:19:48.004Z,7.80
2022-11-29T20:22:20.544Z,7.00
2022-11-29T20:24:54.483Z,10.50
2022-11-29T20:27:26.808Z,8.20
2022-11-29T20:29:59.176Z,10.60
2022-11-29T20:32:31.825Z,8.60
2022-11-29T20:35:05.346Z,10.60
2022-11-29T20:38:01.405Z,9.30
2022-11-29T20:40:45.342Z,9.30
2022-11-29T20:43:22.746Z,8.20
2022-11-29T20:45:55.583Z,9.00
2022-11-29T20:48:29.339Z,7.90
2022-11-29T20:51:03.883Z,8.90
2022-11-29T20:53:39.323Z,11.40
2022-11-29T20:56:13.043Z,7.20
2022-11-29T20:58:45.380Z,8.80
2022-11-29T21:01:17.750Z,8.80
2022-11-29T21:03:50.083Z,12.90
2022-11-29T21:06:22.424Z,7.30
2022-11-29T21:08:54.832Z,9.40
2022-11-29T21:11:27.822Z,13.80
2022-11-29T21:14:03.936Z,7.80
2022-11-29T21:16:36.861Z,8.40
2022-11-29T21:19:13.937Z,6.80
2022-11-29T21:21:58.332Z,7.40
2022-11-29T21:24:37.987Z,7.80
2022-11-29T21:27:16.171Z,9.30
2022-11-29T21:29:49.493Z,8.10
2022-11-29T21:32:24.666Z,10.20
2022-11-29T21:34:57.035Z,6.50
2022-11-29T21:37:31.225Z,14.00
2022-11-29T21:40:03.625Z,7.10
2022-11-29T21:42:36.373Z,8.30
2022-11-29T21:45:15.165Z,8.90
2022-11-29T21:47:48.701Z,8.10
2022-11-29T21:50:21.070Z,9.40
2022-11-29T21:52:55.364Z,8.20
2022-11-29T21:55:32.145Z,8.50
2022-11-29T21:58:04.848Z,8.40
2022-11-29T22:00:37.668Z,9.30
2022-11-29T22:03:11.340Z,7.10
2022-11-29T22:05:43.576Z,8.20
2022-11-29T22:08:15.906Z,12.20
2022-11-29T22:10:48.137Z,8.00
2022-11-29T22:13:20.362Z,7.70
2022-11-29T22:15:52.614Z,10.30
2022-11-29T22:18:27.925Z,6.90
2022-11-29T22:21:05.299Z,11.80
2022-11-29T22:23:37.667Z,8.80
2022-11-29T22:26:10.220Z,11.00
2022-11-29T22:28:42.502Z,10.30
2022-11-29T22:31:15.386Z,10.30
2022-11-29T22:33:47.757Z,11.40
2022-11-29T22:36:19.970Z,10.50
2022-11-29T22:38:52.603Z,8.20
2022-11-29T22:41:24.978Z,11.70
2022-11-29T22:43:57.359Z,8.40
2022-11-29T22:46:30.991Z,11.20
2022-11-29T22:49:03.726Z,9.80
2022-11-29T22:51:37.743Z,9.00
2022-11-29T22:54:11.834Z,10.00
2022-11-29T22:56:45.864Z,9.90
2022-11-29T22:59:18.236Z,11.50
2022-11-29T23:01:50.670Z,8.20
2022-11-29T23:04:23.031Z,11.30
2022-11-29T23:06:55.299Z,11.10
2022-11-29T23:09:27.565Z,9.60
2022-11-29T23:11:59.878Z,10.90
2022-11-29T23:14:32.347Z,10.60
2022-11-29T23:17:04.655Z,10.30
2022-11-29T23:19:36.905Z,10.40
2022-11-29T23:22:09.161Z,11.40
2022-11-29T23:24:42.600Z,10.40
2022-11-29T23:27:14.840Z,11.00
2022-11-29T23:29:47.120Z,13.00
2022-11-29T23:32:19.350Z,10.10
2022-11-29T23:34:51.624Z,10.30
2022-11-29T23:37:23.875Z,14.40
2022-11-29T23:39:56.106Z,11.30
2022-11-29T23:42:28.457Z,15.00
2022-11-29T23:45:00.686Z,10.20
2022-11-29T23:47:33.198Z,10.90
2022-11-29T23:50:05.688Z,14.10
2022-11-29T23:52:38.257Z,15.70
2022-11-29T23:55:12.886Z,14.70
2022-11-29T23:57:45.181Z,12.70
